sensor_id;sensor_type;location;lat;lon;timestamp;P1;durP1;ratioP1;P2;durP2;ratioP2
956;SDS011;465;48.802;9.224;2022-10-16T00:00:46;6.60;;;2.80;;
956;SDS011;465;48.802;9.224;2022-10-16T00:03:13;2.93;;;2.10;;
956;SDS011;465;48.802;9.224;2022-10-16T00:05:40;6.17;;;2.73;;
956;SDS011;465;48.802;9.224;2022-10-16T00:08:09;2.87;;;2.30;;
956;SDS011;465;48.802;9.224;2022-10-16T00:10:36;4.80;;;2.27;;
956;SDS011;465;48.802;9.224;2022-10-16T00:13:05;4.13;;;2.60;;
956;SDS011;465;48.802;9.224;2022-10-16T00:15:33;4.90;;;3.20;;
956;SDS011;465;48.802;9.224;2022-10-16T00:18:02;4.13;;;3.00;;
956;SDS011;465;48.802;9.224;2022-10-16T00:20:29;3.27;;;2.80;;
956;SDS011;465;48.802;9.224;2022-10-16T00:22:56;4.87;;;3.10;;
956;SDS011;465;48.802;9.224;2022-10-16T00:25:23;3.97;;;2.60;;
956;SDS011;465;48.802;9.224;2022-10-16T00:27:50;3.90;;;2.50;;
956;SDS011;465;48.802;9.224;2022-10-16T00:30:18;2.73;;;2.50;;
956;SDS011;465;48.802;9.224;2022-10-16T00:32:45;6.70;;;2.87;;
956;SDS011;465;48.802;9.224;2022-10-16T00:35:11;7.73;;;2.80;;
956;SDS011;465;48.802;9.224;2022-10-16T00:37:38;6.53;;;3.03;;
956;SDS011;465;48.802;9.224;2022-10-16T00:40:05;4.43;;;2.70;;
956;SDS011;465;48.802;9.224;2022-10-16T00:42:33;3.10;;;2.50;;
956;SDS011;465;48.802;9.224;2022-10-16T00:44:59;5.10;;;3.03;;
956;SDS011;465;48.802;9.224;2022-10-16T00:47:28;4.10;;;2.70;;
956;SDS011;465;48.802;9.224;2022-10-16T00:49:58;4.27;;;2.80;;
956;SDS011;465;48.802;9.224;2022-10-16T00:52:30;5.73;;;2.87;;
956;SDS011;465;48.802;9.224;2022-10-16T00:54:57;3.73;;;2.90;;
956;SDS011;465;48.802;9.224;2022-10-16T00:57:25;4.00;;;2.90;;
956;SDS011;465;48.802;9.224;2022-10-16T00:59:52;5.40;;;3.13;;
956;SDS011;465;48.802;9.224;2022-10-16T01:02:19;3.77;;;2.50;;
956;SDS011;465;48.802;9.224;2022-10-16T01:04:48;6.07;;;3.13;;
956;SDS011;465;48.802;9.224;2022-10-16T01:07:20;4.33;;;2.80;;
956;SDS011;465;48.802;9.224;2022-10-16T01:09:59;2.83;;;2.53;;
956;SDS011;465;48.802;9.224;2022-10-16T01:12:35;3.70;;;2.87;;
956;SDS011;465;48.802;9.224;2022-10-16T01:15:09;3.07;;;2.67;;
956;SDS011;465;48.802;9.224;2022-10-16T01:17:41;3.13;;;2.83;;
956;SDS011;465;48.802;9.224;2022-10-16T01:20:14;2.50;;;2.23;;
956;SDS011;465;48.802;9.224;2022-10-16T01:22:53;4.20;;;3.00;;
956;SDS011;465;48.802;9.224;2022-10-16T01:25:28;5.07;;;3.13;;
956;SDS011;465;48.802;9.224;2022-10-16T01:28:04;6.10;;;3.00;;
956;SDS011;465;48.802;9.224;2022-10-16T01:30:37;4.77;;;3.30;;
956;SDS011;465;48.802;9.224;2022-10-16T01:33:08;4.53;;;3.17;;
956;SDS011;465;48.802;9.224;2022-10-16T01:35:39;5.83;;;3.00;;
956;SDS011;465;48.802;9.224;2022-10-16T01:38:10;6.57;;;2.63;;
956;SDS011;465;48.802;9.224;2022-10-16T01:40:42;9.90;;;3.60;;
956;SDS011;465;48.802;9.224;2022-10-16T01:43:14;5.87;;;3.03;;
956;SDS011;465;48.802;9.224;2022-10-16T01:45:44;4.00;;;3.03;;
956;SDS011;465;48.802;9.224;2022-10-16T01:48:12;6.33;;;2.93;;
956;SDS011;465;48.802;9.224;2022-10-16T01:50:43;3.93;;;2.47;;
956;SDS011;465;48.802;9.224;2022-10-16T01:53:14;4.40;;;2.53;;
956;SDS011;465;48.802;9.224;2022-10-16T01:55:44;6.20;;;2.80;;
956;SDS011;465;48.802;9.224;2022-10-16T01:58:15;4.73;;;2.90;;
956;SDS011;465;48.802;9.224;2022-10-16T02:00:42;4.53;;;3.37;;
956;SDS011;465;48.802;9.224;2022-10-16T02:03:12;9.50;;;3.30;;
956;SDS011;465;48.802;9.224;2022-10-16T02:05:42;9.10;;;3.47;;
956;SDS011;465;48.802;9.224;2022-10-16T02:08:12;3.90;;;2.80;;
956;SDS011;465;48.802;9.224;2022-10-16T02:10:39;8.27;;;3.90;;
956;SDS011;465;48.802;9.224;2022-10-16T02:13:06;3.90;;;2.57;;
956;SDS011;465;48.802;9.224;2022-10-16T02:15:37;4.33;;;2.90;;
956;SDS011;465;48.802;9.224;2022-10-16T02:18:04;5.50;;;3.20;;
956;SDS011;465;48.802;9.224;2022-10-16T02:20:34;3.63;;;2.73;;
956;SDS011;465;48.802;9.224;2022-10-16T02:23:05;3.50;;;3.10;;
956;SDS011;465;48.802;9.224;2022-10-16T02:25:39;5.80;;;3.13;;
956;SDS011;465;48.802;9.224;2022-10-16T02:28:10;3.90;;;2.67;;
956;SDS011;465;48.802;9.224;2022-10-16T02:30:43;3.60;;;2.70;;
956;SDS011;465;48.802;9.224;2022-10-16T02:33:13;4.77;;;2.93;;
956;SDS011;465;48.802;9.224;2022-10-16T02:35:42;5.17;;;3.73;;
956;SDS011;465;48.802;9.224;2022-10-16T02:38:11;3.60;;;2.80;;
956;SDS011;465;48.802;9.224;2022-10-16T02:40:40;4.37;;;2.83;;
956;SDS011;465;48.802;9.224;2022-10-16T02:43:07;4.97;;;2.90;;
956;SDS011;465;48.802;9.224;2022-10-16T02:45:35;3.90;;;3.43;;
956;SDS011;465;48.802;9.224;2022-10-16T02:48:03;6.37;;;3.37;;
956;SDS011;465;48.802;9.224;2022-10-16T02:50:30;5.23;;;3.30;;
956;SDS011;465;48.802;9.224;2022-10-16T02:52:57;4.47;;;2.80;;
956;SDS011;465;48.802;9.224;2022-10-16T02:55:24;4.77;;;2.67;;
956;SDS011;465;48.802;9.224;2022-10-16T02:57:51;5.93;;;2.70;;
956;SDS011;465;48.802;9.224;2022-10-16T03:00:18;6.83;;;2.50;;
956;SDS011;465;48.802;9.224;2022-10-16T03:02:44;3.00;;;2.47;;
956;SDS011;465;48.802;9.224;2022-10-16T03:05:13;6.47;;;2.80;;
956;SDS011;465;48.802;9.224;2022-10-16T03:07:40;5.37;;;3.20;;
956;SDS011;465;48.802;9.224;2022-10-16T03:10:07;4.80;;;3.40;;
956;SDS011;465;48.802;9.224;2022-10-16T03:12:34;3.00;;;2.63;;
956;SDS011;465;48.802;9.224;2022-10-16T03:15:01;5.17;;;3.03;;
956;SDS011;465;48.802;9.224;2022-10-16T03:17:28;3.57;;;3.07;;
956;SDS011;465;48.802;9.224;2022-10-16T03:19:55;5.10;;;3.20;;
956;SDS011;465;48.802;9.224;2022-10-16T03:22:23;6.63;;;3.77;;
956;SDS011;465;48.802;9.224;2022-10-16T03:24:50;3.63;;;2.97;;
956;SDS011;465;48.802;9.224;2022-10-16T03:27:17;7.73;;;2.77;;
956;SDS011;465;48.802;9.224;2022-10-16T03:29:43;8.83;;;3.40;;
956;SDS011;465;48.802;9.224;2022-10-16T03:32:10;5.10;;;3.47;;
956;SDS011;465;48.802;9.224;2022-10-16T03:34:37;5.37;;;2.70;;
956;SDS011;465;48.802;9.224;2022-10-16T03:37:04;4.33;;;2.30;;
956;SDS011;465;48.802;9.224;2022-10-16T03:39:32;5.87;;;3.67;;
956;SDS011;465;48.802;9.224;2022-10-16T03:41:58;4.83;;;3.00;;
956;SDS011;465;48.802;9.224;2022-10-16T03:44:25;3.83;;;3.20;;
956;SDS011;465;48.802;9.224;2022-10-16T03:46:52;7.27;;;3.20;;
956;SDS011;465;48.802;9.224;2022-10-16T03:49:18;6.30;;;3.20;;
956;SDS011;465;48.802;9.224;2022-10-16T03:51:45;5.13;;;3.47;;
956;SDS011;465;48.802;9.224;2022-10-16T03:54:12;7.13;;;3.37;;
956;SDS011;465;48.802;9.224;2022-10-16T03:56:40;4.23;;;3.00;;
956;SDS011;465;48.802;9.224;2022-10-16T03:59:07;6.40;;;3.30;;
956;SDS011;465;48.802;9.224;2022-10-16T04:01:33;5.00;;;3.30;;
956;SDS011;465;48.802;9.224;2022-10-16T04:04:00;27.60;;;4.80;;
956;SDS011;465;48.802;9.224;2022-10-16T04:06:27;6.70;;;3.20;;
956;SDS011;465;48.802;9.224;2022-10-16T04:08:54;8.13;;;3.97;;
956;SDS011;465;48.802;9.224;2022-10-16T04:11:21;5.27;;;3.30;;
956;SDS011;465;48.802;9.224;2022-10-16T04:13:49;5.53;;;3.40;;
956;SDS011;465;48.802;9.224;2022-10-16T04:16:16;6.17;;;2.70;;
956;SDS011;465;48.802;9.224;2022-10-16T04:18:42;3.70;;;3.13;;
956;SDS011;465;48.802;9.224;2022-10-16T04:21:09;12.73;;;3.60;;
956;SDS011;465;48.802;9.224;2022-10-16T04:23:36;5.80;;;3.93;;
956;SDS011;465;48.802;9.224;2022-10-16T04:26:02;6.87;;;3.77;;
956;SDS011;465;48.802;9.224;2022-10-16T04:28:29;3.83;;;2.93;;
956;SDS011;465;48.802;9.224;2022-10-16T04:30:57;4.43;;;3.47;;
956;SDS011;465;48.802;9.224;2022-10-16T04:33:24;5.40;;;3.47;;
956;SDS011;465;48.802;9.224;2022-10-16T04:35:55;4.70;;;3.17;;
956;SDS011;465;48.802;9.224;2022-10-16T04:38:23;4.30;;;3.40;;
956;SDS011;465;48.802;9.224;2022-10-16T04:40:49;4.67;;;2.80;;
956;SDS011;465;48.802;9.224;2022-10-16T04:43:16;4.83;;;2.67;;
956;SDS011;465;48.802;9.224;2022-10-16T04:45:43;4.30;;;2.80;;
956;SDS011;465;48.802;9.224;2022-10-16T04:48:11;5.97;;;2.83;;
956;SDS011;465;48.802;9.224;2022-10-16T04:50:38;6.27;;;3.00;;
956;SDS011;465;48.802;9.224;2022-10-16T04:53:05;5.33;;;3.17;;
956;SDS011;465;48.802;9.224;2022-10-16T04:55:32;3.83;;;3.10;;
956;SDS011;465;48.802;9.224;2022-10-16T04:57:59;9.53;;;3.40;;
956;SDS011;465;48.802;9.224;2022-10-16T05:00:25;5.13;;;3.20;;
956;SDS011;465;48.802;9.224;2022-10-16T05:02:52;3.50;;;2.80;;
956;SDS011;465;48.802;9.224;2022-10-16T05:05:21;6.10;;;3.00;;
956;SDS011;465;48.802;9.224;2022-10-16T05:07:48;6.47;;;2.73;;
956;SDS011;465;48.802;9.224;2022-10-16T05:10:15;3.37;;;3.00;;
956;SDS011;465;48.802;9.224;2022-10-16T05:12:44;6.77;;;3.07;;
956;SDS011;465;48.802;9.224;2022-10-16T05:15:11;4.80;;;3.53;;
956;SDS011;465;48.802;9.224;2022-10-16T05:17:38;4.13;;;3.40;;
956;SDS011;465;48.802;9.224;2022-10-16T05:20:05;3.97;;;3.37;;
956;SDS011;465;48.802;9.224;2022-10-16T05:22:34;3.90;;;2.90;;
956;SDS011;465;48.802;9.224;2022-10-16T05:25:01;3.87;;;3.33;;
956;SDS011;465;48.802;9.224;2022-10-16T05:27:28;4.70;;;2.90;;
956;SDS011;465;48.802;9.224;2022-10-16T05:29:54;9.87;;;2.53;;
956;SDS011;465;48.802;9.224;2022-10-16T05:32:21;6.10;;;2.20;;
956;SDS011;465;48.802;9.224;2022-10-16T05:34:48;5.20;;;2.97;;
956;SDS011;465;48.802;9.224;2022-10-16T05:37:14;3.23;;;2.57;;
956;SDS011;465;48.802;9.224;2022-10-16T05:39:42;4.07;;;2.77;;
956;SDS011;465;48.802;9.224;2022-10-16T05:42:09;8.80;;;2.60;;
956;SDS011;465;48.802;9.224;2022-10-16T05:44:36;4.27;;;2.53;;
956;SDS011;465;48.802;9.224;2022-10-16T05:47:03;6.30;;;2.93;;
956;SDS011;465;48.802;9.224;2022-10-16T05:49:29;5.13;;;3.83;;
956;SDS011;465;48.802;9.224;2022-10-16T05:51:56;6.03;;;3.10;;
956;SDS011;465;48.802;9.224;2022-10-16T05:54:23;4.80;;;3.00;;
956;SDS011;465;48.802;9.224;2022-10-16T05:56:51;10.70;;;3.80;;
956;SDS011;465;48.802;9.224;2022-10-16T05:59:18;3.27;;;2.83;;
956;SDS011;465;48.802;9.224;2022-10-16T06:01:44;5.73;;;3.00;;
956;SDS011;465;48.802;9.224;2022-10-16T06:04:11;4.50;;;3.07;;
956;SDS011;465;48.802;9.224;2022-10-16T06:06:38;5.17;;;4.00;;
956;SDS011;465;48.802;9.224;2022-10-16T06:09:05;3.63;;;3.33;;
956;SDS011;465;48.802;9.224;2022-10-16T06:11:34;4.03;;;3.03;;
956;SDS011;465;48.802;9.224;2022-10-16T06:14:04;4.43;;;3.17;;
956;SDS011;465;48.802;9.224;2022-10-16T06:16:32;4.23;;;3.07;;
956;SDS011;465;48.802;9.224;2022-10-16T06:18:59;14.03;;;3.40;;
956;SDS011;465;48.802;9.224;2022-10-16T06:21:27;5.70;;;3.10;;
956;SDS011;465;48.802;9.224;2022-10-16T06:23:54;4.47;;;2.67;;
956;SDS011;465;48.802;9.224;2022-10-16T06:26:23;6.27;;;2.93;;
956;SDS011;465;48.802;9.224;2022-10-16T06:28:50;6.70;;;2.90;;
956;SDS011;465;48.802;9.224;2022-10-16T06:31:19;7.03;;;3.40;;
956;SDS011;465;48.802;9.224;2022-10-16T06:33:49;6.00;;;3.07;;
956;SDS011;465;48.802;9.224;2022-10-16T06:36:17;3.43;;;2.97;;
956;SDS011;465;48.802;9.224;2022-10-16T06:38:44;3.93;;;3.50;;
956;SDS011;465;48.802;9.224;2022-10-16T06:41:11;3.80;;;3.10;;
956;SDS011;465;48.802;9.224;2022-10-16T06:43:39;4.03;;;3.40;;
956;SDS011;465;48.802;9.224;2022-10-16T06:46:06;6.10;;;3.87;;
956;SDS011;465;48.802;9.224;2022-10-16T06:48:37;4.10;;;3.70;;
956;SDS011;465;48.802;9.224;2022-10-16T06:51:05;5.77;;;3.10;;
956;SDS011;465;48.802;9.224;2022-10-16T06:53:33;4.50;;;2.77;;
956;SDS011;465;48.802;9.224;2022-10-16T06:56:06;4.10;;;2.50;;
956;SDS011;465;48.802;9.224;2022-10-16T06:58:34;4.43;;;3.10;;
956;SDS011;465;48.802;9.224;2022-10-16T07:01:00;6.00;;;3.07;;
956;SDS011;465;48.802;9.224;2022-10-16T07:03:27;2.93;;;2.63;;
956;SDS011;465;48.802;9.224;2022-10-16T07:05:55;4.50;;;2.80;;
956;SDS011;465;48.802;9.224;2022-10-16T07:08:22;5.40;;;3.33;;
956;SDS011;465;48.802;9.224;2022-10-16T07:10:57;4.30;;;3.00;;
956;SDS011;465;48.802;9.224;2022-10-16T07:13:25;5.93;;;3.00;;
956;SDS011;465;48.802;9.224;2022-10-16T07:15:52;3.77;;;3.10;;
956;SDS011;465;48.802;9.224;2022-10-16T07:18:19;8.07;;;3.00;;
956;SDS011;465;48.802;9.224;2022-10-16T07:20:45;5.47;;;3.40;;
956;SDS011;465;48.802;9.224;2022-10-16T07:23:13;5.70;;;3.40;;
956;SDS011;465;48.802;9.224;2022-10-16T07:25:40;11.77;;;3.57;;
956;SDS011;465;48.802;9.224;2022-10-16T07:28:07;3.90;;;3.23;;
956;SDS011;465;48.802;9.224;2022-10-16T07:30:34;3.90;;;3.07;;
956;SDS011;465;48.802;9.224;2022-10-16T07:33:02;5.07;;;3.03;;
956;SDS011;465;48.802;9.224;2022-10-16T07:35:29;6.90;;;2.77;;
956;SDS011;465;48.802;9.224;2022-10-16T07:37:56;5.37;;;3.30;;
956;SDS011;465;48.802;9.224;2022-10-16T07:40:24;4.50;;;3.33;;
956;SDS011;465;48.802;9.224;2022-10-16T07:42:52;5.07;;;3.10;;
956;SDS011;465;48.802;9.224;2022-10-16T07:45:18;9.47;;;3.17;;
956;SDS011;465;48.802;9.224;2022-10-16T07:47:45;5.17;;;3.60;;
956;SDS011;465;48.802;9.224;2022-10-16T07:50:12;7.07;;;3.40;;
956;SDS011;465;48.802;9.224;2022-10-16T07:52:39;9.20;;;4.40;;
956;SDS011;465;48.802;9.224;2022-10-16T07:55:06;3.60;;;2.90;;
956;SDS011;465;48.802;9.224;2022-10-16T07:57:34;4.50;;;3.40;;
956;SDS011;465;48.802;9.224;2022-10-16T08:00:01;7.27;;;3.47;;
956;SDS011;465;48.802;9.224;2022-10-16T08:02:28;4.80;;;2.73;;
956;SDS011;465;48.802;9.224;2022-10-16T08:04:55;6.80;;;3.03;;
956;SDS011;465;48.802;9.224;2022-10-16T08:07:21;4.87;;;3.00;;
956;SDS011;465;48.802;9.224;2022-10-16T08:09:48;3.20;;;2.40;;
956;SDS011;465;48.802;9.224;2022-10-16T08:12:16;5.40;;;2.70;;
956;SDS011;465;48.802;9.224;2022-10-16T08:14:44;5.00;;;3.00;;
956;SDS011;465;48.802;9.224;2022-10-16T08:17:13;3.23;;;2.43;;
956;SDS011;465;48.802;9.224;2022-10-16T08:19:43;5.80;;;3.20;;
956;SDS011;465;48.802;9.224;2022-10-16T08:22:11;6.23;;;2.73;;
956;SDS011;465;48.802;9.224;2022-10-16T08:24:37;4.07;;;2.80;;
956;SDS011;465;48.802;9.224;2022-10-16T08:27:04;3.80;;;2.33;;
956;SDS011;465;48.802;9.224;2022-10-16T08:29:31;4.60;;;2.60;;
956;SDS011;465;48.802;9.224;2022-10-16T08:32:00;5.20;;;2.80;;
956;SDS011;465;48.802;9.224;2022-10-16T08:34:27;4.83;;;3.20;;
956;SDS011;465;48.802;9.224;2022-10-16T08:36:53;4.33;;;3.10;;
956;SDS011;465;48.802;9.224;2022-10-16T08:39:20;6.40;;;2.37;;
956;SDS011;465;48.802;9.224;2022-10-16T08:44:41;3.20;;;2.40;;
956;SDS011;465;48.802;9.224;2022-10-16T08:47:24;3.83;;;2.70;;
956;SDS011;465;48.802;9.224;2022-10-16T08:50:08;5.53;;;2.60;;
956;SDS011;465;48.802;9.224;2022-10-16T08:52:38;5.33;;;2.40;;
956;SDS011;465;48.802;9.224;2022-10-16T08:55:08;4.53;;;2.73;;
956;SDS011;465;48.802;9.224;2022-10-16T08:57:49;3.03;;;2.50;;
956;SDS011;465;48.802;9.224;2022-10-16T09:00:16;3.70;;;2.30;;
956;SDS011;465;48.802;9.224;2022-10-16T09:02:46;6.40;;;1.93;;
956;SDS011;465;48.802;9.224;2022-10-16T09:08:40;4.30;;;2.30;;
956;SDS011;465;48.802;9.224;2022-10-16T09:11:12;3.20;;;1.93;;
956;SDS011;465;48.802;9.224;2022-10-16T09:13:48;3.50;;;2.10;;
956;SDS011;465;48.802;9.224;2022-10-16T09:16:19;3.63;;;2.07;;
956;SDS011;465;48.802;9.224;2022-10-16T09:18:54;2.00;;;1.77;;
956;SDS011;465;48.802;9.224;2022-10-16T09:21:27;4.67;;;2.50;;
956;SDS011;465;48.802;9.224;2022-10-16T09:23:57;2.43;;;2.23;;
956;SDS011;465;48.802;9.224;2022-10-16T09:26:26;3.23;;;1.70;;
956;SDS011;465;48.802;9.224;2022-10-16T09:28:52;2.67;;;2.00;;
956;SDS011;465;48.802;9.224;2022-10-16T09:31:20;5.23;;;2.30;;
956;SDS011;465;48.802;9.224;2022-10-16T09:33:49;3.80;;;1.83;;
956;SDS011;465;48.802;9.224;2022-10-16T09:36:21;2.43;;;2.00;;
956;SDS011;465;48.802;9.224;2022-10-16T09:38:49;2.60;;;2.10;;
956;SDS011;465;48.802;9.224;2022-10-16T09:41:27;3.67;;;2.40;;
956;SDS011;465;48.802;9.224;2022-10-16T09:43:54;7.63;;;1.97;;
956;SDS011;465;48.802;9.224;2022-10-16T09:46:27;3.27;;;2.20;;
956;SDS011;465;48.802;9.224;2022-10-16T09:48:57;4.97;;;3.00;;
956;SDS011;465;48.802;9.224;2022-10-16T09:51:26;3.07;;;2.63;;
956;SDS011;465;48.802;9.224;2022-10-16T09:53:55;5.23;;;2.30;;
956;SDS011;465;48.802;9.224;2022-10-16T09:56:25;2.73;;;2.53;;
956;SDS011;465;48.802;9.224;2022-10-16T09:58:54;2.67;;;2.20;;
956;SDS011;465;48.802;9.224;2022-10-16T10:01:22;2.97;;;1.73;;
956;SDS011;465;48.802;9.224;2022-10-16T10:03:56;4.50;;;2.10;;
956;SDS011;465;48.802;9.224;2022-10-16T10:06:26;4.37;;;1.90;;
956;SDS011;465;48.802;9.224;2022-10-16T10:08:56;3.07;;;1.70;;
956;SDS011;465;48.802;9.224;2022-10-16T10:11:44;3.53;;;1.90;;
956;SDS011;465;48.802;9.224;2022-10-16T10:17:09;2.30;;;1.93;;
956;SDS011;465;48.802;9.224;2022-10-16T10:19:40;2.40;;;1.93;;
956;SDS011;465;48.802;9.224;2022-10-16T10:22:24;8.27;;;2.30;;
956;SDS011;465;48.802;9.224;2022-10-16T10:24:56;4.20;;;1.70;;
956;SDS011;465;48.802;9.224;2022-10-16T10:27:28;3.47;;;2.23;;
956;SDS011;465;48.802;9.224;2022-10-16T10:30:04;1.73;;;1.50;;
956;SDS011;465;48.802;9.224;2022-10-16T10:32:38;5.40;;;2.10;;
956;SDS011;465;48.802;9.224;2022-10-16T10:35:15;4.07;;;1.93;;
956;SDS011;465;48.802;9.224;2022-10-16T10:37:51;3.23;;;2.40;;
956;SDS011;465;48.802;9.224;2022-10-16T10:40:32;2.10;;;1.70;;
956;SDS011;465;48.802;9.224;2022-10-16T10:43:09;2.70;;;1.87;;
956;SDS011;465;48.802;9.224;2022-10-16T10:45:43;4.57;;;2.83;;
956;SDS011;465;48.802;9.224;2022-10-16T10:48:16;4.30;;;2.27;;
956;SDS011;465;48.802;9.224;2022-10-16T10:50:50;5.20;;;1.70;;
956;SDS011;465;48.802;9.224;2022-10-16T10:53:24;3.77;;;2.00;;
956;SDS011;465;48.802;9.224;2022-10-16T10:56:02;3.20;;;1.60;;
956;SDS011;465;48.802;9.224;2022-10-16T10:58:43;3.60;;;1.50;;
956;SDS011;465;48.802;9.224;2022-10-16T11:01:26;3.00;;;1.50;;
956;SDS011;465;48.802;9.224;2022-10-16T11:04:11;4.80;;;1.73;;
956;SDS011;465;48.802;9.224;2022-10-16T11:07:03;4.83;;;1.73;;
956;SDS011;465;48.802;9.224;2022-10-16T11:09:32;3.27;;;1.80;;
956;SDS011;465;48.802;9.224;2022-10-16T11:12:05;2.10;;;1.70;;
956;SDS011;465;48.802;9.224;2022-10-16T11:14:38;4.10;;;1.80;;
956;SDS011;465;48.802;9.224;2022-10-16T11:17:10;2.50;;;1.73;;
956;SDS011;465;48.802;9.224;2022-10-16T11:19:41;6.13;;;1.80;;
956;SDS011;465;48.802;9.224;2022-10-16T11:22:15;3.80;;;2.60;;
956;SDS011;465;48.802;9.224;2022-10-16T11:24:46;3.20;;;1.60;;
956;SDS011;465;48.802;9.224;2022-10-16T11:27:18;2.70;;;1.77;;
956;SDS011;465;48.802;9.224;2022-10-16T11:29:51;3.00;;;1.70;;
956;SDS011;465;48.802;9.224;2022-10-16T11:32:23;2.03;;;1.80;;
956;SDS011;465;48.802;9.224;2022-10-16T11:34:57;2.73;;;1.50;;
956;SDS011;465;48.802;9.224;2022-10-16T11:37:30;3.33;;;1.50;;
956;SDS011;465;48.802;9.224;2022-10-16T11:40:09;2.80;;;1.80;;
956;SDS011;465;48.802;9.224;2022-10-16T11:42:48;4.70;;;1.80;;
956;SDS011;465;48.802;9.224;2022-10-16T11:45:24;1.73;;;1.53;;
956;SDS011;465;48.802;9.224;2022-10-16T11:47:57;2.70;;;1.70;;
956;SDS011;465;48.802;9.224;2022-10-16T11:50:29;1.80;;;1.70;;
956;SDS011;465;48.802;9.224;2022-10-16T11:53:03;3.73;;;1.73;;
956;SDS011;465;48.802;9.224;2022-10-16T11:55:42;2.40;;;1.63;;
956;SDS011;465;48.802;9.224;2022-10-16T11:58:13;1.97;;;1.20;;
956;SDS011;465;48.802;9.224;2022-10-16T12:00:46;2.63;;;1.53;;
956;SDS011;465;48.802;9.224;2022-10-16T12:03:20;2.60;;;1.50;;
956;SDS011;465;48.802;9.224;2022-10-16T12:05:55;4.43;;;1.90;;
956;SDS011;465;48.802;9.224;2022-10-16T12:08:34;5.43;;;2.80;;
956;SDS011;465;48.802;9.224;2022-10-16T12:11:09;5.70;;;3.20;;
956;SDS011;465;48.802;9.224;2022-10-16T12:13:48;2.33;;;1.87;;
956;SDS011;465;48.802;9.224;2022-10-16T12:16:21;2.97;;;1.60;;
956;SDS011;465;48.802;9.224;2022-10-16T12:18:49;5.43;;;2.90;;
956;SDS011;465;48.802;9.224;2022-10-16T12:21:35;4.53;;;2.10;;
956;SDS011;465;48.802;9.224;2022-10-16T12:24:04;2.50;;;1.67;;
956;SDS011;465;48.802;9.224;2022-10-16T12:26:31;3.67;;;2.17;;
956;SDS011;465;48.802;9.224;2022-10-16T12:29:10;1.50;;;1.30;;
956;SDS011;465;48.802;9.224;2022-10-16T12:31:42;3.50;;;1.97;;
956;SDS011;465;48.802;9.224;2022-10-16T12:34:15;3.60;;;2.03;;
956;SDS011;465;48.802;9.224;2022-10-16T12:36:49;2.80;;;1.80;;
956;SDS011;465;48.802;9.224;2022-10-16T12:39:21;1.73;;;1.30;;
956;SDS011;465;48.802;9.224;2022-10-16T12:42:00;4.60;;;2.00;;
956;SDS011;465;48.802;9.224;2022-10-16T12:44:32;1.60;;;1.40;;
956;SDS011;465;48.802;9.224;2022-10-16T12:46:59;2.60;;;1.30;;
956;SDS011;465;48.802;9.224;2022-10-16T12:49:30;2.93;;;1.30;;
956;SDS011;465;48.802;9.224;2022-10-16T12:52:02;1.70;;;1.37;;
956;SDS011;465;48.802;9.224;2022-10-16T12:54:31;2.80;;;1.73;;
956;SDS011;465;48.802;9.224;2022-10-16T12:57:04;2.30;;;1.70;;
956;SDS011;465;48.802;9.224;2022-10-16T12:59:47;5.83;;;2.17;;
956;SDS011;465;48.802;9.224;2022-10-16T13:02:23;3.97;;;1.63;;
956;SDS011;465;48.802;9.224;2022-10-16T13:05:13;3.30;;;3.00;;
956;SDS011;465;48.802;9.224;2022-10-16T13:07:52;3.53;;;2.20;;
956;SDS011;465;48.802;9.224;2022-10-16T13:10:31;3.83;;;3.50;;
956;SDS011;465;48.802;9.224;2022-10-16T13:13:08;3.80;;;2.77;;
956;SDS011;465;48.802;9.224;2022-10-16T13:15:55;4.30;;;1.90;;
956;SDS011;465;48.802;9.224;2022-10-16T13:18:33;3.60;;;2.40;;
956;SDS011;465;48.802;9.224;2022-10-16T13:21:12;5.37;;;2.73;;
956;SDS011;465;48.802;9.224;2022-10-16T13:23:48;2.67;;;2.17;;
956;SDS011;465;48.802;9.224;2022-10-16T13:26:26;3.87;;;2.40;;
956;SDS011;465;48.802;9.224;2022-10-16T13:28:59;3.60;;;1.97;;
956;SDS011;465;48.802;9.224;2022-10-16T13:31:27;3.57;;;2.23;;
956;SDS011;465;48.802;9.224;2022-10-16T13:33:55;3.10;;;2.50;;
956;SDS011;465;48.802;9.224;2022-10-16T13:36:25;4.13;;;1.87;;
956;SDS011;465;48.802;9.224;2022-10-16T13:39:00;2.20;;;2.00;;
956;SDS011;465;48.802;9.224;2022-10-16T13:41:38;2.47;;;2.23;;
956;SDS011;465;48.802;9.224;2022-10-16T13:44:05;3.10;;;2.80;;
956;SDS011;465;48.802;9.224;2022-10-16T13:46:39;2.90;;;1.87;;
956;SDS011;465;48.802;9.224;2022-10-16T13:49:11;5.00;;;2.20;;
956;SDS011;465;48.802;9.224;2022-10-16T13:51:39;5.70;;;2.13;;
956;SDS011;465;48.802;9.224;2022-10-16T13:54:07;5.57;;;3.67;;
956;SDS011;465;48.802;9.224;2022-10-16T13:56:38;2.60;;;2.23;;
956;SDS011;465;48.802;9.224;2022-10-16T13:59:20;5.87;;;2.10;;
956;SDS011;465;48.802;9.224;2022-10-16T14:01:50;2.93;;;2.50;;
956;SDS011;465;48.802;9.224;2022-10-16T14:04:20;2.50;;;2.20;;
956;SDS011;465;48.802;9.224;2022-10-16T14:06:48;3.13;;;2.43;;
956;SDS011;465;48.802;9.224;2022-10-16T14:09:21;3.93;;;2.13;;
956;SDS011;465;48.802;9.224;2022-10-16T14:11:53;4.17;;;2.57;;
956;SDS011;465;48.802;9.224;2022-10-16T14:14:22;3.50;;;3.20;;
956;SDS011;465;48.802;9.224;2022-10-16T14:16:50;4.77;;;3.80;;
956;SDS011;465;48.802;9.224;2022-10-16T14:19:18;5.60;;;2.83;;
956;SDS011;465;48.802;9.224;2022-10-16T14:21:49;2.47;;;2.07;;
956;SDS011;465;48.802;9.224;2022-10-16T14:24:24;2.43;;;2.23;;
956;SDS011;465;48.802;9.224;2022-10-16T14:26:58;5.77;;;2.60;;
956;SDS011;465;48.802;9.224;2022-10-16T14:29:26;2.63;;;2.37;;
956;SDS011;465;48.802;9.224;2022-10-16T14:31:56;2.67;;;2.40;;
956;SDS011;465;48.802;9.224;2022-10-16T14:34:25;4.77;;;2.50;;
956;SDS011;465;48.802;9.224;2022-10-16T14:36:55;3.93;;;3.00;;
956;SDS011;465;48.802;9.224;2022-10-16T14:39:23;3.80;;;2.57;;
956;SDS011;465;48.802;9.224;2022-10-16T14:41:51;4.80;;;2.77;;
956;SDS011;465;48.802;9.224;2022-10-16T14:44:26;3.60;;;2.60;;
956;SDS011;465;48.802;9.224;2022-10-16T14:46:55;5.53;;;2.80;;
956;SDS011;465;48.802;9.224;2022-10-16T14:49:24;3.67;;;2.50;;
956;SDS011;465;48.802;9.224;2022-10-16T14:51:53;7.00;;;3.60;;
956;SDS011;465;48.802;9.224;2022-10-16T14:54:20;4.10;;;2.77;;
956;SDS011;465;48.802;9.224;2022-10-16T14:56:47;3.20;;;2.60;;
956;SDS011;465;48.802;9.224;2022-10-16T14:59:19;6.30;;;4.87;;
956;SDS011;465;48.802;9.224;2022-10-16T15:01:53;6.50;;;3.73;;
956;SDS011;465;48.802;9.224;2022-10-16T15:04:20;5.60;;;3.47;;
956;SDS011;465;48.802;9.224;2022-10-16T15:06:47;4.93;;;2.67;;
956;SDS011;465;48.802;9.224;2022-10-16T15:09:14;5.00;;;2.83;;
956;SDS011;465;48.802;9.224;2022-10-16T15:11:41;2.97;;;2.23;;
956;SDS011;465;48.802;9.224;2022-10-16T15:14:09;6.07;;;2.27;;
956;SDS011;465;48.802;9.224;2022-10-16T15:16:39;4.00;;;2.33;;
956;SDS011;465;48.802;9.224;2022-10-16T15:19:06;3.60;;;2.80;;
956;SDS011;465;48.802;9.224;2022-10-16T15:21:33;4.47;;;2.80;;
956;SDS011;465;48.802;9.224;2022-10-16T15:24:00;4.73;;;2.87;;
956;SDS011;465;48.802;9.224;2022-10-16T15:26:27;3.30;;;2.47;;
956;SDS011;465;48.802;9.224;2022-10-16T15:28:55;3.43;;;2.20;;
956;SDS011;465;48.802;9.224;2022-10-16T15:31:23;4.77;;;3.50;;
956;SDS011;465;48.802;9.224;2022-10-16T15:33:51;5.00;;;2.73;;
956;SDS011;465;48.802;9.224;2022-10-16T15:36:26;4.17;;;2.80;;
956;SDS011;465;48.802;9.224;2022-10-16T15:38:54;3.33;;;2.33;;
956;SDS011;465;48.802;9.224;2022-10-16T15:41:21;5.67;;;2.73;;
956;SDS011;465;48.802;9.224;2022-10-16T15:43:49;5.07;;;2.20;;
956;SDS011;465;48.802;9.224;2022-10-16T15:46:17;2.90;;;2.50;;
956;SDS011;465;48.802;9.224;2022-10-16T15:48:45;3.37;;;2.70;;
956;SDS011;465;48.802;9.224;2022-10-16T15:51:14;4.67;;;2.50;;
956;SDS011;465;48.802;9.224;2022-10-16T15:53:41;3.53;;;2.80;;
956;SDS011;465;48.802;9.224;2022-10-16T15:56:11;6.80;;;3.90;;
956;SDS011;465;48.802;9.224;2022-10-16T15:58:38;10.30;;;4.40;;
956;SDS011;465;48.802;9.224;2022-10-16T16:01:05;4.93;;;2.90;;
956;SDS011;465;48.802;9.224;2022-10-16T16:03:34;5.90;;;3.53;;
956;SDS011;465;48.802;9.224;2022-10-16T16:06:03;5.80;;;3.20;;
956;SDS011;465;48.802;9.224;2022-10-16T16:08:31;7.37;;;3.23;;
956;SDS011;465;48.802;9.224;2022-10-16T16:10:59;8.53;;;3.60;;